Time;durP1;ratioP1;P1;durP2;ratioP2;P2;SDS_P1;SDS_P2;PMS_P1;PMS_P2;Temp;Humidity;BMP_temperature;BMP_pressure;BME280_temperature;BME280_humidity;BME280_pressure;Samples;Min_cycle;Max_cycle;Signal;HPM_P1;HPM_P2
2023/09/11 00:01:50;;;;;;;686.72;612.28;;;19.80;99.90;;;;;;5070161;28;20471;-87
2023/09/11 00:04:16;;;;;;;692.13;619.53;;;19.80;99.90;;;;;;5089848;28;20059;-87
2023/09/11 00:06:42;;;;;;;683.15;612.80;;;19.80;99.90;;;;;;5070898;28;20044;-87
2023/09/11 00:09:08;;;;;;;658.28;593.03;;;19.80;99.90;;;;;;5088649;28;20036;-87
2023/09/11 00:11:33;;;;;;;672.03;603.30;;;19.80;99.90;;;;;;5070735;28;20052;-87
2023/09/11 00:13:59;;;;;;;639.20;578.33;;;19.80;99.90;;;;;;5045445;28;20037;-87
2023/09/11 00:16:25;;;;;;;605.97;547.47;;;19.80;99.90;;;;;;5048226;28;20080;-87
2023/09/11 00:18:50;;;;;;;630.75;571.15;;;19.70;99.90;;;;;;5042437;28;20128;-87
2023/09/11 00:21:16;;;;;;;690.75;623.13;;;19.70;99.90;;;;;;5051761;28;20048;-87
2023/09/11 00:23:42;;;;;;;660.38;595.22;;;19.70;99.90;;;;;;5062520;28;20044;-87
2023/09/11 00:26:07;;;;;;;694.85;622.47;;;19.70;99.90;;;;;;5058470;28;20050;-88
2023/09/11 00:28:33;;;;;;;628.03;569.22;;;19.70;99.90;;;;;;5053623;28;20081;-87
2023/09/11 00:30:59;;;;;;;674.63;608.08;;;19.70;99.90;;;;;;5069388;28;20502;-87
2023/09/11 00:33:25;;;;;;;672.58;604.85;;;19.80;99.90;;;;;;5053694;28;20090;-86
2023/09/11 00:35:51;;;;;;;692.85;623.65;;;19.80;99.90;;;;;;5053317;28;20075;-87
2023/09/11 00:38:19;;;;;;;604.75;546.22;;;19.80;99.90;;;;;;5070355;28;20429;-87
2023/09/11 00:40:44;;;;;;;690.90;622.20;;;19.80;99.90;;;;;;5053119;28;20079;-87
2023/09/11 00:43:10;;;;;;;677.72;608.85;;;19.70;99.90;;;;;;5053276;28;20071;-87
2023/09/11 00:45:36;;;;;;;727.88;651.47;;;19.70;99.90;;;;;;5055388;28;20666;-87
2023/09/11 00:48:04;;;;;;;702.88;630.15;;;19.70;99.90;;;;;;5080967;28;20055;-87
2023/09/11 00:50:34;;;;;;;619.55;557.63;;;19.70;99.90;;;;;;5069619;28;20518;-87
2023/09/11 00:53:02;;;;;;;624.00;559.92;;;19.70;99.90;;;;;;5070196;28;20557;-86
2023/09/11 00:55:28;;;;;;;645.55;580.30;;;19.70;99.90;;;;;;5069893;28;20044;-87
2023/09/11 00:57:54;;;;;;;647.95;580.70;;;19.60;99.90;;;;;;5069594;28;20043;-87
2023/09/11 01:00:21;;;;;;;674.55;605.30;;;19.60;99.90;;;;;;5056249;28;20453;-87
2023/09/11 01:02:47;;;;;;;618.50;556.80;;;19.60;99.90;;;;;;5063125;28;20372;-87
2023/09/11 01:05:13;;;;;;;664.17;596.05;;;19.60;99.90;;;;;;5069088;28;20131;-87
2023/09/11 01:07:39;;;;;;;690.05;618.17;;;19.50;99.90;;;;;;5053038;28;20094;-87
2023/09/11 01:10:06;;;;;;;643.17;579.83;;;19.60;99.90;;;;;;5053867;28;20040;-86
2023/09/11 01:12:36;;;;;;;598.22;540.28;;;19.50;99.90;;;;;;5051521;28;20491;-87
2023/09/11 01:15:06;;;;;;;687.03;617.17;;;19.50;99.90;;;;;;5040534;28;20097;-87
2023/09/11 01:17:47;;;;;;;663.95;597.35;;;19.50;99.90;;;;;;5068851;28;20051;-87
2023/09/11 01:20:47;;;;;;;641.72;579.47;;;19.50;99.90;;;;;;5063940;28;20048;-86
2023/09/11 01:23:36;;;;;;;675.83;606.58;;;19.50;99.90;;;;;;5067624;28;20116;-87
2023/09/11 01:26:37;;;;;;;701.42;630.22;;;19.60;99.90;;;;;;5085127;28;20040;-87
2023/09/11 01:29:09;;;;;;;653.38;590.17;;;19.60;99.90;;;;;;5053795;28;20059;-87
2023/09/11 01:31:37;;;;;;;667.90;601.55;;;19.60;99.90;;;;;;5082089;28;20117;-87
2023/09/11 01:34:05;;;;;;;659.97;593.67;;;19.60;99.90;;;;;;5052752;28;20050;-87
2023/09/11 01:36:31;;;;;;;730.08;654.55;;;19.60;99.90;;;;;;5074834;28;20488;-87
2023/09/11 01:38:57;;;;;;;618.00;555.75;;;19.60;99.90;;;;;;5068820;28;20032;-87
2023/09/11 01:41:32;;;;;;;706.42;631.28;;;19.60;99.90;;;;;;5068984;28;20097;-87
2023/09/11 01:44:06;;;;;;;706.05;633.83;;;19.60;99.90;;;;;;5086937;28;20048;-87
2023/09/11 01:46:32;;;;;;;663.13;593.58;;;19.60;99.90;;;;;;5051489;28;20048;-87
2023/09/11 01:49:00;;;;;;;657.45;589.13;;;19.50;99.90;;;;;;5068484;28;20051;-87
2023/09/11 01:51:27;;;;;;;724.40;646.83;;;19.50;99.90;;;;;;5070061;28;20040;-87
2023/09/11 01:53:53;;;;;;;684.10;614.13;;;19.50;99.90;;;;;;5067958;28;20044;-87
2023/09/11 01:56:19;;;;;;;631.42;569.58;;;19.50;99.90;;;;;;5069622;28;20528;-87
2023/09/11 01:58:45;;;;;;;674.08;604.13;;;19.40;99.90;;;;;;5052552;28;20078;-87
2023/09/11 02:01:11;;;;;;;625.85;564.55;;;19.40;99.90;;;;;;5052157;28;20040;-87
2023/09/11 02:03:36;;;;;;;656.40;588.00;;;19.40;99.90;;;;;;5068795;28;20045;-87
2023/09/11 02:06:02;;;;;;;636.55;571.40;;;19.40;99.90;;;;;;5069060;28;20044;-88
2023/09/11 02:08:28;;;;;;;613.88;552.83;;;19.40;99.90;;;;;;5081918;28;20048;-87
2023/09/11 02:10:54;;;;;;;692.80;619.58;;;19.40;99.90;;;;;;5096311;28;20055;-87
2023/09/11 02:13:20;;;;;;;571.20;512.90;;;19.40;99.90;;;;;;5069901;28;20048;-87
2023/09/11 02:15:45;;;;;;;654.83;586.03;;;19.40;99.90;;;;;;5058282;28;20074;-87
2023/09/11 02:18:11;;;;;;;714.28;636.95;;;19.40;99.90;;;;;;5052235;28;20463;-87
2023/09/11 02:20:47;;;;;;;582.38;526.30;;;19.40;99.90;;;;;;5052437;28;20044;-87
2023/09/11 02:23:15;;;;;;;672.70;602.33;;;19.40;99.90;;;;;;5051915;28;20059;-87
2023/09/11 02:25:41;;;;;;;672.05;603.03;;;19.40;99.90;;;;;;5068455;28;20044;-87
2023/09/11 02:28:07;;;;;;;633.47;567.80;;;19.40;99.90;;;;;;5069444;28;20040;-87
2023/09/11 02:30:33;;;;;;;617.10;555.00;;;19.40;99.90;;;;;;5061196;28;20321;-87
2023/09/11 02:32:58;;;;;;;667.67;598.60;;;19.30;99.90;;;;;;5081774;28;20440;-87
2023/09/11 02:35:24;;;;;;;577.72;521.85;;;19.30;99.90;;;;;;5051794;28;20050;-87
2023/09/11 02:37:50;;;;;;;569.00;513.95;;;19.30;99.90;;;;;;5068619;28;20071;-87
2023/09/11 02:40:16;;;;;;;714.58;640.63;;;19.30;99.90;;;;;;5069119;28;20063;-87
2023/09/11 02:42:41;;;;;;;702.47;629.60;;;19.30;99.90;;;;;;5068729;28;20506;-86
2023/09/11 02:45:07;;;;;;;588.20;529.05;;;19.30;99.90;;;;;;5089264;28;20498;-87
2023/09/11 02:47:33;;;;;;;712.70;640.17;;;19.30;99.90;;;;;;5053063;28;20059;-86
2023/09/11 02:49:59;;;;;;;615.08;552.38;;;19.30;99.90;;;;;;5068756;28;20044;-87
2023/09/11 02:52:25;;;;;;;702.22;628.25;;;19.30;99.90;;;;;;5064929;28;20058;-86
2023/09/11 02:54:53;;;;;;;649.58;582.53;;;19.30;99.90;;;;;;5053260;28;20044;-87
2023/09/11 02:57:18;;;;;;;695.70;624.38;;;19.20;99.90;;;;;;5054762;28;20036;-87
2023/09/11 02:59:44;;;;;;;663.90;595.92;;;19.20;99.90;;;;;;5055579;28;20044;-86
2023/09/11 03:02:10;;;;;;;513.15;465.23;;;19.20;99.90;;;;;;5055014;28;20040;-87
2023/09/11 03:04:36;;;;;;;647.72;579.63;;;19.20;99.90;;;;;;5071476;28;20048;-87
2023/09/11 03:07:01;;;;;;;686.75;614.42;;;19.20;99.90;;;;;;5055330;28;20415;-87
2023/09/11 03:09:27;;;;;;;618.13;556.08;;;19.10;99.90;;;;;;5055712;28;20055;-87
2023/09/11 03:11:53;;;;;;;599.63;542.53;;;19.10;99.90;;;;;;5070438;28;20550;-86
2023/09/11 03:14:19;;;;;;;584.90;528.92;;;19.10;99.90;;;;;;5045154;28;20139;-87
2023/09/11 03:16:44;;;;;;;649.95;580.65;;;19.10;99.90;;;;;;5069334;28;20039;-86
2023/09/11 03:19:11;;;;;;;623.70;562.58;;;19.10;99.90;;;;;;5072081;28;20044;-86
2023/09/11 03:21:37;;;;;;;746.50;668.50;;;19.00;99.90;;;;;;5077132;28;20040;-86
2023/09/11 03:24:08;;;;;;;654.20;589.25;;;19.00;99.90;;;;;;5072005;28;20044;-86
2023/09/11 03:26:37;;;;;;;742.40;663.80;;;19.00;99.90;;;;;;5071504;28;20040;-87
2023/09/11 03:29:03;;;;;;;697.35;626.28;;;18.90;99.90;;;;;;5090399;28;20523;-86
2023/09/11 03:31:29;;;;;;;639.22;577.50;;;18.90;99.90;;;;;;5054150;28;20063;-87
2023/09/11 03:33:54;;;;;;;634.65;570.63;;;18.90;99.90;;;;;;5053955;28;20048;-86
2023/09/11 03:36:21;;;;;;;588.88;531.28;;;18.90;99.90;;;;;;5055284;28;20047;-87
2023/09/11 03:38:46;;;;;;;621.83;560.67;;;18.90;99.90;;;;;;5070186;28;20123;-86
2023/09/11 03:41:12;;;;;;;738.38;662.72;;;18.80;99.90;;;;;;5054581;28;20131;-87
2023/09/11 03:43:38;;;;;;;778.88;699.33;;;18.80;99.90;;;;;;5054874;28;20430;-87
2023/09/11 03:46:04;;;;;;;692.60;622.22;;;18.80;99.90;;;;;;5058186;28;20048;-87
2023/09/11 03:48:30;;;;;;;602.28;542.92;;;18.80;99.90;;;;;;5073262;28;20403;-86
2023/09/11 03:50:56;;;;;;;600.90;546.63;;;18.70;99.90;;;;;;5066113;28;20497;-87
2023/09/11 03:53:22;;;;;;;677.88;610.97;;;18.70;99.90;;;;;;5048803;28;20050;-87
2023/09/11 03:55:47;;;;;;;565.90;515.70;;;18.70;99.90;;;;;;5049253;28;20037;-87
2023/09/11 03:58:13;;;;;;;635.83;573.63;;;18.70;99.90;;;;;;5048013;28;20079;-87
2023/09/11 04:00:39;;;;;;;684.22;617.28;;;18.60;99.90;;;;;;5048569;28;20634;-86
2023/09/11 04:03:05;;;;;;;580.72;528.63;;;18.70;99.90;;;;;;5055937;28;20506;-86
2023/09/11 04:05:30;;;;;;;751.88;673.40;;;18.70;99.90;;;;;;5057921;28;20047;-87
2023/09/11 04:07:59;;;;;;;613.08;555.72;;;18.60;99.90;;;;;;5069826;28;20047;-86
2023/09/11 04:10:25;;;;;;;710.90;641.88;;;18.60;99.90;;;;;;5050701;28;20067;-86
2023/09/11 04:12:51;;;;;;;621.70;561.58;;;18.60;99.90;;;;;;5060593;28;20571;-87
2023/09/11 04:15:16;;;;;;;625.88;566.10;;;18.60;99.90;;;;;;5056994;28;20032;-87
2023/09/11 04:17:42;;;;;;;638.85;578.45;;;18.50;99.90;;;;;;5042804;28;20044;-88
2023/09/11 04:20:09;;;;;;;900.65;782.65;;;18.50;99.90;;;;;;5058514;28;20047;-87
2023/09/11 04:22:35;;;;;;;840.65;748.53;;;18.50;99.90;;;;;;5042681;28;20071;-87
2023/09/11 04:25:01;;;;;;;903.83;786.03;;;18.40;99.90;;;;;;5054546;28;20128;-87
2023/09/11 04:27:27;;;;;;;698.70;631.20;;;18.40;99.90;;;;;;5054513;28;20123;-87
2023/09/11 04:29:53;;;;;;;792.95;709.38;;;18.40;99.90;;;;;;5068675;28;20127;-87
2023/09/11 04:32:20;;;;;;;797.72;713.08;;;18.30;99.90;;;;;;5051809;28;20040;-88
2023/09/11 04:34:46;;;;;;;810.15;723.20;;;18.30;99.90;;;;;;5058013;28;20051;-87
2023/09/11 04:37:13;;;;;;;846.95;756.25;;;18.30;99.90;;;;;;5042489;28;20048;-87
2023/09/11 04:39:40;;;;;;;791.03;709.55;;;18.30;99.90;;;;;;5048425;28;20050;-87
2023/09/11 04:42:06;;;;;;;961.47;810.03;;;18.30;99.90;;;;;;5051578;28;20040;-88
2023/09/11 04:44:32;;;;;;;901.40;799.90;;;18.30;99.90;;;;;;5064704;28;20045;-88
2023/09/11 04:46:58;;;;;;;952.00;811.28;;;18.30;99.90;;;;;;5063137;28;20468;-87
2023/09/11 04:49:24;;;;;;;839.65;750.38;;;18.30;99.90;;;;;;5051870;28;20059;-88
2023/09/11 04:51:49;;;;;;;823.30;735.50;;;18.30;99.90;;;;;;5064604;28;20558;-88
2023/09/11 04:54:15;;;;;;;890.67;783.50;;;18.20;99.90;;;;;;5069410;28;20042;-88
2023/09/11 04:56:41;;;;;;;756.60;682.83;;;18.20;99.90;;;;;;5051247;28;20048;-88
2023/09/11 04:59:07;;;;;;;852.38;759.75;;;18.20;99.90;;;;;;5053684;28;20079;-88
2023/09/11 05:01:33;;;;;;;805.38;721.13;;;18.30;99.90;;;;;;5053973;28;20039;-88
2023/09/11 05:03:59;;;;;;;805.85;721.67;;;18.30;99.90;;;;;;5064958;28;20454;-88
2023/09/11 05:06:25;;;;;;;880.28;783.75;;;18.20;99.90;;;;;;5069817;28;20044;-88
2023/09/11 05:08:51;;;;;;;827.70;740.38;;;18.20;99.90;;;;;;5052821;28;20070;-88
2023/09/11 05:11:16;;;;;;;868.58;775.03;;;18.30;99.90;;;;;;5082101;28;20086;-88
2023/09/11 05:13:42;;;;;;;886.72;790.78;;;18.30;99.90;;;;;;5069553;28;20111;-88
2023/09/11 05:16:08;;;;;;;875.78;779.65;;;18.30;99.90;;;;;;5070781;28;20098;-88
2023/09/11 05:18:34;;;;;;;894.00;792.85;;;18.30;99.90;;;;;;5082155;28;20514;-88
2023/09/11 05:21:02;;;;;;;815.13;734.30;;;18.40;99.90;;;;;;5070674;28;20040;-88
2023/09/11 05:23:28;;;;;;;850.20;759.00;;;18.40;99.90;;;;;;5053624;28;20047;-88
2023/09/11 05:25:54;;;;;;;845.90;755.95;;;18.40;99.90;;;;;;5052733;28;20144;-88
2023/09/11 05:28:19;;;;;;;887.90;789.75;;;18.50;99.90;;;;;;5052970;28;20128;-88
2023/09/11 05:30:45;;;;;;;833.17;746.35;;;18.50;99.90;;;;;;5069778;28;20036;-88
2023/09/11 05:33:11;;;;;;;893.58;794.50;;;18.60;99.90;;;;;;5072426;28;20570;-88
2023/09/11 05:35:38;;;;;;;806.65;721.60;;;18.60;99.90;;;;;;5076898;28;20036;-87
2023/09/11 05:38:04;;;;;;;874.33;777.97;;;18.70;99.90;;;;;;5052549;28;20090;-88
2023/09/11 05:40:32;;;;;;;822.47;736.65;;;18.70;99.90;;;;;;5053841;28;20064;-88
2023/09/11 05:43:01;;;;;;;831.70;742.08;;;18.80;99.90;;;;;;5061082;28;20086;-87
2023/09/11 05:45:27;;;;;;;769.85;692.85;;;18.80;99.90;;;;;;5087535;28;20035;-87
2023/09/11 05:47:53;;;;;;;853.95;759.88;;;18.90;99.90;;;;;;5081661;28;20238;-88
2023/09/11 05:50:19;;;;;;;878.58;781.22;;;19.00;99.90;;;;;;5052949;28;20044;-88
2023/09/11 05:52:45;;;;;;;739.05;664.38;;;19.00;99.90;;;;;;5059483;28;20486;-88
2023/09/11 05:55:10;;;;;;;620.10;563.90;;;19.00;99.90;;;;;;5054832;28;20123;-87
2023/09/11 05:57:36;;;;;;;560.92;509.92;;;19.00;99.90;;;;;;5069412;28;20480;-88
2023/09/11 06:00:09;;;;;;;611.42;552.38;;;19.10;99.90;;;;;;5069403;28;20040;-87
2023/09/11 06:02:35;;;;;;;593.90;536.60;;;19.10;99.90;;;;;;5047052;28;20601;-88
2023/09/11 06:05:01;;;;;;;602.53;543.00;;;19.20;99.90;;;;;;5049199;28;20041;-88
2023/09/11 06:07:27;;;;;;;604.78;547.70;;;19.20;99.90;;;;;;5052386;28;20048;-87
2023/09/11 06:09:53;;;;;;;648.97;585.58;;;19.30;99.90;;;;;;5061098;28;20051;-87
2023/09/11 06:12:18;;;;;;;500.88;456.10;;;19.30;99.90;;;;;;5050401;28;20100;-87
2023/09/11 06:14:44;;;;;;;661.47;596.80;;;19.40;99.90;;;;;;5052805;28;20075;-87
2023/09/11 06:17:12;;;;;;;649.70;585.58;;;19.40;99.90;;;;;;5077227;28;20439;-87
2023/09/11 06:19:38;;;;;;;617.60;556.38;;;19.50;99.90;;;;;;5056921;28;20048;-87
2023/09/11 06:22:04;;;;;;;692.67;622.47;;;19.60;99.90;;;;;;5069433;28;20181;-88
2023/09/11 06:24:29;;;;;;;621.50;559.10;;;19.60;99.90;;;;;;5069079;28;20044;-88
2023/09/11 06:27:05;;;;;;;704.47;630.33;;;19.60;99.90;;;;;;5042412;28;20412;-88
2023/09/11 06:29:34;;;;;;;711.00;633.97;;;19.60;99.90;;;;;;5065223;28;20386;-88
2023/09/11 06:32:01;;;;;;;644.72;574.58;;;19.70;99.90;;;;;;5056491;28;20047;-88
2023/09/11 06:34:29;;;;;;;728.88;631.35;;;19.70;99.90;;;;;;5054055;28;20073;-88
2023/09/11 06:36:55;;;;;;;709.45;628.33;;;19.80;99.90;;;;;;5056268;28;20051;-88
2023/09/11 06:39:21;;;;;;;648.72;574.53;;;19.80;99.90;;;;;;5070327;28;20407;-88
2023/09/11 06:41:48;;;;;;;723.53;622.38;;;19.90;99.90;;;;;;5052461;28;20044;-87
2023/09/11 06:44:13;;;;;;;678.80;603.75;;;19.90;99.90;;;;;;5053654;28;20108;-87
2023/09/11 06:46:39;;;;;;;641.83;573.45;;;19.90;99.90;;;;;;5052628;28;20550;-87
2023/09/11 06:49:05;;;;;;;726.75;644.88;;;20.00;99.90;;;;;;5062749;28;20060;-87
2023/09/11 06:51:31;;;;;;;627.10;560.17;;;20.10;99.90;;;;;;5052755;28;20055;-88
2023/09/11 06:53:57;;;;;;;762.58;651.25;;;20.20;99.90;;;;;;5053279;28;20080;-87
2023/09/11 06:56:23;;;;;;;722.15;618.72;;;20.20;99.90;;;;;;5067211;28;20040;-88
2023/09/11 06:58:54;;;;;;;710.35;588.47;;;20.30;99.90;;;;;;5049268;28;20044;-88
2023/09/11 07:01:22;;;;;;;827.92;671.05;;;20.40;99.90;;;;;;5080412;28;20069;-87
2023/09/11 07:03:49;;;;;;;772.00;660.72;;;20.40;99.90;;;;;;5087696;28;20048;-87
2023/09/11 07:06:15;;;;;;;792.70;670.88;;;20.50;99.90;;;;;;5055026;28;20048;-88
2023/09/11 07:08:41;;;;;;;805.55;659.97;;;20.60;99.90;;;;;;5052472;28;20123;-89
2023/09/11 07:11:06;;;;;;;839.70;679.58;;;20.60;99.90;;;;;;5053700;28;20052;-88
2023/09/11 07:13:32;;;;;;;808.40;662.10;;;20.70;99.90;;;;;;5065886;28;20047;-89
2023/09/11 07:16:01;;;;;;;764.28;646.03;;;20.80;99.90;;;;;;5047594;28;20058;-87
2023/09/11 07:18:28;;;;;;;717.47;594.63;;;20.90;99.90;;;;;;5077190;28;20054;-88
2023/09/11 07:20:54;;;;;;;763.38;647.60;;;21.00;99.90;;;;;;5059626;28;20112;-88
2023/09/11 07:23:20;;;;;;;757.92;652.40;;;21.10;99.90;;;;;;5070956;28;20109;-88
2023/09/11 07:25:55;;;;;;;683.80;593.58;;;21.20;99.90;;;;;;5055234;28;20107;-88
2023/09/11 07:28:25;;;;;;;808.50;652.38;;;21.30;99.90;;;;;;5060212;28;20044;-88
2023/09/11 07:30:57;;;;;;;818.55;676.15;;;21.40;99.90;;;;;;5053445;28;20055;-89
2023/09/11 07:33:25;;;;;;;760.77;647.47;;;21.60;99.90;;;;;;5057394;28;20051;-88
2023/09/11 07:35:51;;;;;;;692.95;610.88;;;21.70;99.90;;;;;;5053499;28;20311;-89
2023/09/11 07:38:17;;;;;;;727.25;630.20;;;21.80;99.90;;;;;;5069480;28;20044;-88
2023/09/11 07:40:44;;;;;;;708.58;632.47;;;21.80;99.90;;;;;;5054278;28;20052;-88
2023/09/11 07:43:13;;;;;;;725.58;647.85;;;21.90;99.90;;;;;;5044908;28;20193;-87
2023/09/11 07:45:51;;;;;;;705.03;623.05;;;22.00;99.90;;;;;;5041681;28;20507;-89
2023/09/11 07:48:58;;;;;;;693.92;612.30;;;22.10;99.90;;;;;;5054900;28;20067;-91
2023/09/11 07:51:24;;;;;;;738.55;661.03;;;22.30;99.90;;;;;;5036040;28;20088;-95
2023/09/11 07:53:50;;;;;;;704.58;628.17;;;22.40;99.90;;;;;;5024720;28;20124;-96
2023/09/11 07:56:29;;;;;;;;;;;;;;;;;;;;;
2023/09/11 07:59:00;;;;;;;678.40;606.63;;;22.70;99.90;;;;;;5064154;28;20056;-96
2023/09/11 08:01:29;;;;;;;681.45;612.67;;;22.80;99.90;;;;;;5020691;28;20489;-96
2023/09/11 08:03:55;;;;;;;722.83;651.00;;;22.90;99.90;;;;;;5028142;28;20037;-96
2023/09/11 08:09:34;;;;;;;722.67;650.05;;;23.20;99.90;;;;;;5021105;28;20057;-96
2023/09/11 08:12:02;;;;;;;766.45;688.05;;;23.40;99.90;;;;;;5036131;28;20044;-94
2023/09/11 08:14:31;;;;;;;714.33;644.30;;;23.40;99.90;;;;;;5039244;28;20103;-94
2023/09/11 08:16:59;;;;;;;667.03;602.30;;;23.40;99.90;;;;;;5016757;28;20064;-95
2023/09/11 08:19:25;;;;;;;709.50;640.60;;;23.50;99.90;;;;;;5037894;28;20087;-96
2023/09/11 08:21:57;;;;;;;643.45;580.92;;;23.60;99.90;;;;;;5014228;28;20134;-96
2023/09/11 08:24:23;;;;;;;616.53;559.77;;;23.70;99.90;;;;;;5026292;28;20739;-92
2023/09/11 08:26:51;;;;;;;609.83;552.22;;;23.80;99.90;;;;;;5024442;28;20306;-94
2023/09/11 08:29:18;;;;;;;657.78;594.47;;;23.90;99.90;;;;;;5034302;28;20504;-95
2023/09/11 08:31:44;;;;;;;593.47;537.33;;;24.00;99.90;;;;;;5029589;28;20135;-94
2023/09/11 08:34:09;;;;;;;651.35;589.10;;;24.10;99.90;;;;;;5028937;28;20116;-94
2023/09/11 08:36:35;;;;;;;586.90;533.60;;;24.20;99.90;;;;;;5020926;28;20826;-95
2023/09/11 08:39:01;;;;;;;560.22;509.08;;;24.20;99.90;;;;;;5040394;28;20080;-91
2023/09/11 08:41:31;;;;;;;635.30;578.85;;;24.30;99.90;;;;;;5046398;28;20041;-96
2023/09/11 08:43:57;;;;;;;770.63;693.63;;;24.40;99.90;;;;;;5037991;28;20045;-94
2023/09/11 08:46:27;;;;;;;693.75;626.53;;;24.50;99.90;;;;;;5044282;28;20047;-96
2023/09/11 08:48:59;;;;;;;783.40;704.92;;;24.70;99.90;;;;;;5057840;28;20044;-96
2023/09/11 08:51:33;;;;;;;694.55;628.47;;;24.80;99.90;;;;;;5034893;28;20155;-95
2023/09/11 08:54:09;;;;;;;715.72;648.60;;;24.90;99.90;;;;;;5055000;28;20061;-96
2023/09/11 08:56:35;;;;;;;663.75;602.63;;;25.00;99.90;;;;;;5059546;28;20040;-96
2023/09/11 08:59:04;;;;;;;692.70;627.78;;;25.10;99.90;;;;;;5058182;28;20398;-95
2023/09/11 09:01:31;;;;;;;666.97;600.72;;;25.20;99.90;;;;;;5079533;28;20098;-96
2023/09/11 09:04:08;;;;;;;657.30;594.00;;;25.30;99.90;;;;;;5067664;28;20052;-96
2023/09/11 09:06:35;;;;;;;712.15;646.42;;;25.40;99.90;;;;;;5068232;28;20125;-96
2023/09/11 09:09:02;;;;;;;687.65;618.67;;;25.60;99.90;;;;;;5052923;28;20040;-91
2023/09/11 09:11:28;;;;;;;628.08;568.88;;;25.70;99.90;;;;;;5063742;28;20051;-90
2023/09/11 09:13:55;;;;;;;741.05;664.70;;;25.80;99.90;;;;;;5049979;28;20052;-88
2023/09/11 09:16:20;;;;;;;731.17;654.15;;;25.80;99.90;;;;;;5080250;28;20090;-87
2023/09/11 09:18:49;;;;;;;689.63;619.95;;;25.90;99.90;;;;;;5048584;28;20561;-88
2023/09/11 09:21:25;;;;;;;671.58;605.20;;;26.00;99.90;;;;;;5049977;28;20036;-88
2023/09/11 09:23:52;;;;;;;716.80;646.65;;;26.10;99.90;;;;;;5048909;28;20062;-88
2023/09/11 09:26:18;;;;;;;717.95;641.90;;;26.10;99.90;;;;;;5048875;28;20068;-86
2023/09/11 09:28:46;;;;;;;775.35;696.85;;;26.20;99.90;;;;;;5049355;28;20185;-88
2023/09/11 09:31:21;;;;;;;716.55;646.92;;;26.30;99.90;;;;;;5049451;28;20120;-87
2023/09/11 09:33:55;;;;;;;704.40;636.03;;;26.40;99.90;;;;;;5058312;28;20478;-88
2023/09/11 09:36:22;;;;;;;707.17;639.45;;;26.50;99.90;;;;;;5050228;28;20596;-88
2023/09/11 09:38:51;;;;;;;658.78;595.05;;;26.50;99.90;;;;;;5050136;28;20427;-88
2023/09/11 09:41:20;;;;;;;718.47;649.78;;;26.50;99.90;;;;;;5071562;28;20027;-88
2023/09/11 09:43:55;;;;;;;603.92;544.45;;;26.60;99.90;;;;;;5064955;28;20091;-89
2023/09/11 09:46:25;;;;;;;720.45;647.42;;;26.60;99.90;;;;;;5049947;28;20039;-89
2023/09/11 09:48:55;;;;;;;674.95;612.20;;;26.70;99.90;;;;;;5076212;28;20170;-89
2023/09/11 09:51:21;;;;;;;625.42;566.17;;;26.80;99.90;;;;;;5052658;28;20451;-88
2023/09/11 09:53:53;;;;;;;618.13;561.25;;;26.80;99.90;;;;;;5069438;28;20040;-88
2023/09/11 09:56:19;;;;;;;588.85;536.45;;;26.90;99.90;;;;;;5061380;28;20047;-88
2023/09/11 09:58:45;;;;;;;549.10;497.40;;;26.90;99.90;;;;;;5052027;28;20038;-88
2023/09/11 10:01:20;;;;;;;611.75;552.72;;;26.90;99.90;;;;;;5075881;28;20032;-88
2023/09/11 10:03:50;;;;;;;584.20;527.13;;;26.90;99.90;;;;;;5070999;28;20072;-88
2023/09/11 10:06:18;;;;;;;622.92;565.13;;;27.00;99.90;;;;;;5080448;28;20086;-87
2023/09/11 10:08:45;;;;;;;591.45;536.47;;;27.00;99.90;;;;;;5079562;28;20260;-89
2023/09/11 10:11:28;;;;;;;594.60;540.35;;;27.10;99.90;;;;;;5056539;28;20040;-88
2023/09/11 10:13:58;;;;;;;522.38;471.95;;;27.10;99.90;;;;;;5048486;28;20052;-88
2023/09/11 10:16:25;;;;;;;415.92;375.40;;;27.20;99.90;;;;;;5051458;28;20052;-88
2023/09/11 10:19:02;;;;;;;613.05;555.10;;;27.20;99.90;;;;;;5055010;28;20642;-88
2023/09/11 10:21:29;;;;;;;555.22;503.88;;;27.30;99.90;;;;;;5073377;28;20032;-88
2023/09/11 10:23:56;;;;;;;545.92;493.90;;;27.40;99.90;;;;;;5056211;28;20494;-88
2023/09/11 10:26:43;;;;;;;579.15;524.70;;;27.40;99.90;;;;;;5055632;28;20055;-89
2023/09/11 10:29:43;;;;;;;608.42;553.47;;;27.50;99.90;;;;;;5055985;28;20130;-88
2023/09/11 10:32:16;;;;;;;596.33;541.03;;;27.50;99.90;;;;;;5064005;28;20090;-88
2023/09/11 10:34:46;;;;;;;497.40;449.05;;;27.50;99.90;;;;;;5086229;28;20040;-88
2023/09/11 10:37:12;;;;;;;435.88;392.63;;;27.50;99.90;;;;;;5057420;28;20548;-88
2023/09/11 10:39:38;;;;;;;506.40;457.52;;;27.60;99.90;;;;;;5062444;28;20100;-89
2023/09/11 10:42:04;;;;;;;530.80;479.88;;;27.60;99.90;;;;;;5074603;28;20043;-88
2023/09/11 10:44:37;;;;;;;599.35;541.20;;;27.60;99.90;;;;;;5056823;28;20044;-90
2023/09/11 10:47:04;;;;;;;576.08;519.40;;;27.60;99.90;;;;;;5064299;28;20061;-87
2023/09/11 10:49:37;;;;;;;569.30;513.28;;;27.80;99.90;;;;;;5033183;28;20488;-88
2023/09/11 10:52:07;;;;;;;632.97;572.83;;;27.80;99.90;;;;;;5035941;28;20477;-88
2023/09/11 10:54:35;;;;;;;648.85;583.92;;;27.80;99.90;;;;;;5032707;28;20040;-87
2023/09/11 10:57:00;;;;;;;555.88;500.13;;;27.80;99.90;;;;;;5049245;28;20076;-88
2023/09/11 10:59:28;;;;;;;554.13;497.77;;;27.80;99.90;;;;;;5033567;28;20444;-89
2023/09/11 11:01:54;;;;;;;624.50;567.05;;;27.80;99.90;;;;;;5029396;28;20060;-88
2023/09/11 11:04:23;;;;;;;599.58;540.47;;;27.80;99.90;;;;;;5049156;28;20052;-88
2023/09/11 11:06:52;;;;;;;645.58;582.63;;;27.90;99.90;;;;;;5045715;28;20076;-91
2023/09/11 11:09:32;;;;;;;589.13;531.50;;;27.90;99.90;;;;;;5030537;28;20471;-89
2023/09/11 11:12:10;;;;;;;584.00;524.95;;;27.90;99.90;;;;;;5030534;28;20045;-91
2023/09/11 11:14:39;;;;;;;652.28;590.55;;;28.00;99.90;;;;;;5039920;28;20053;-88
2023/09/11 11:17:16;;;;;;;649.70;588.83;;;28.00;99.90;;;;;;5055708;28;20046;-88
2023/09/11 11:19:59;;;;;;;660.85;598.47;;;28.10;99.90;;;;;;5013452;28;20049;-89
2023/09/11 11:22:41;;;;;;;671.13;605.85;;;28.00;99.90;;;;;;5030686;28;20506;-88
2023/09/11 11:25:10;;;;;;;647.53;584.35;;;28.20;99.90;;;;;;5047541;28;20037;-88
2023/09/11 11:27:39;;;;;;;609.53;552.92;;;28.10;99.90;;;;;;5029879;28;20048;-89
2023/09/11 11:30:08;;;;;;;640.47;576.78;;;28.10;99.90;;;;;;5026301;28;20045;-88
2023/09/11 11:32:34;;;;;;;685.38;620.88;;;28.10;99.90;;;;;;5045112;28;20094;-88
2023/09/11 11:35:04;;;;;;;613.65;554.03;;;28.20;99.90;;;;;;5053774;28;20041;-88
2023/09/11 11:37:38;;;;;;;510.10;461.88;;;28.30;99.90;;;;;;5041672;28;20068;-89
2023/09/11 11:40:11;;;;;;;675.92;610.33;;;28.20;99.90;;;;;;5045931;28;20150;-90
2023/09/11 11:42:37;;;;;;;564.42;508.40;;;28.20;99.90;;;;;;5030697;28;20087;-90
2023/09/11 11:45:05;;;;;;;592.65;538.03;;;28.30;99.90;;;;;;5038541;28;20411;-89
2023/09/11 11:47:37;;;;;;;655.92;592.25;;;28.40;99.90;;;;;;5029950;28;20045;-88
2023/09/11 11:50:30;;;;;;;548.20;491.02;;;28.30;99.90;;;;;;5030232;28;20382;-88
2023/09/11 11:52:57;;;;;;;540.42;484.00;;;28.30;99.90;;;;;;5023212;28;20097;-88
2023/09/11 11:55:24;;;;;;;647.50;580.80;;;28.20;99.90;;;;;;5060512;28;20041;-89
2023/09/11 11:57:54;;;;;;;508.05;457.55;;;28.20;99.90;;;;;;5031121;28;20110;-89
2023/09/11 12:00:20;;;;;;;589.63;529.47;;;28.10;99.90;;;;;;5043737;28;20052;-89
2023/09/11 12:02:46;;;;;;;558.03;500.88;;;28.10;99.90;;;;;;5041627;28;20039;-89
2023/09/11 12:05:24;;;;;;;542.28;485.35;;;28.10;99.90;;;;;;5047982;28;20037;-89
2023/09/11 12:07:50;;;;;;;502.67;451.65;;;28.20;99.90;;;;;;5047316;28;20140;-89
2023/09/11 12:10:16;;;;;;;459.38;414.00;;;28.20;99.90;;;;;;5043207;28;20037;-90
2023/09/11 12:12:45;;;;;;;458.30;415.45;;;28.10;99.90;;;;;;5030662;28;20044;-89
2023/09/11 12:15:22;;;;;;;537.38;482.15;;;28.10;99.90;;;;;;5034178;28;20037;-88
2023/09/11 12:17:52;;;;;;;571.33;512.65;;;28.10;99.90;;;;;;5030258;28;20041;-89